Time;durP1;ratioP1;P1;durP2;ratioP2;P2;SDS_P1;SDS_P2;PMS_P1;PMS_P2;Temp;Humidity;BMP_temperature;BMP_pressure;BME280_temperature;BME280_humidity;BME280_pressure;Samples;Min_cycle;Max_cycle;Signal;HPM_P1;HPM_P2
2023/02/05 00:01:55;;;;;;;6.63;5.90;;;13.60;40.50;;;;;;4990394;28;20487;-79
2023/02/05 00:04:23;;;;;;;8.90;5.73;;;13.50;40.30;;;;;;4988800;28;20441;-79
2023/02/05 00:06:51;;;;;;;8.47;5.83;;;13.50;40.70;;;;;;4986934;28;20459;-77
2023/02/05 00:09:19;;;;;;;10.93;6.07;;;13.50;40.00;;;;;;4992172;28;20453;-78
2023/02/05 00:11:47;;;;;;;7.40;5.73;;;13.50;41.00;;;;;;4990480;28;20488;-79
2023/02/05 00:14:15;;;;;;;9.00;6.00;;;13.50;41.10;;;;;;4990511;28;20481;-79
2023/02/05 00:16:44;;;;;;;9.13;6.00;;;13.50;40.60;;;;;;4989309;28;20461;-78
2023/02/05 00:19:12;;;;;;;9.30;5.40;;;13.40;41.30;;;;;;4986739;28;20433;-79
2023/02/05 00:21:40;;;;;;;7.80;5.83;;;13.50;41.30;;;;;;4987934;28;20478;-78
2023/02/05 00:24:08;;;;;;;8.80;5.40;;;13.60;41.00;;;;;;4992632;28;20437;-79
2023/02/05 00:26:36;;;;;;;9.73;5.60;;;13.50;41.10;;;;;;4986822;28;20480;-79
2023/02/05 00:29:04;;;;;;;7.27;5.60;;;13.60;41.10;;;;;;4991682;28;20452;-79
2023/02/05 00:31:32;;;;;;;8.23;5.60;;;13.60;41.40;;;;;;4987521;28;20556;-79
2023/02/05 00:34:01;;;;;;;7.90;6.20;;;13.60;41.20;;;;;;4987023;28;20474;-78
2023/02/05 00:36:29;;;;;;;6.47;5.20;;;13.60;41.40;;;;;;4984732;28;20448;-77
2023/02/05 00:38:56;;;;;;;8.87;5.30;;;13.50;41.30;;;;;;4990827;28;20437;-78
2023/02/05 00:41:24;;;;;;;10.23;5.73;;;13.50;41.20;;;;;;4987500;28;20483;-80
2023/02/05 00:43:52;;;;;;;7.27;5.70;;;13.50;41.20;;;;;;4989366;28;20949;-78
2023/02/05 00:46:21;;;;;;;8.13;5.53;;;13.50;41.50;;;;;;4988209;28;20459;-79
2023/02/05 00:48:49;;;;;;;7.80;5.37;;;13.50;41.40;;;;;;4990599;28;20552;-79
2023/02/05 00:51:18;;;;;;;6.50;5.00;;;13.50;41.00;;;;;;4987598;28;20481;-79
2023/02/05 00:53:46;;;;;;;13.13;6.83;;;13.50;41.40;;;;;;4993086;28;20476;-79
2023/02/05 00:56:14;;;;;;;11.07;6.00;;;13.50;41.50;;;;;;4990395;28;20473;-79
2023/02/05 00:58:46;;;;;;;8.83;5.70;;;13.40;41.70;;;;;;4989234;28;20461;-79
2023/02/05 01:01:14;;;;;;;8.50;5.77;;;13.50;41.60;;;;;;4989684;28;20504;-80
2023/02/05 01:03:42;;;;;;;8.30;5.40;;;13.50;41.40;;;;;;4992050;28;20445;-80
2023/02/05 01:06:11;;;;;;;8.37;6.10;;;13.40;41.70;;;;;;4985085;28;20454;-79
2023/02/05 01:08:40;;;;;;;7.43;5.80;;;13.50;41.60;;;;;;4992044;28;20468;-78
2023/02/05 01:11:10;;;;;;;6.80;5.50;;;13.50;41.20;;;;;;4988016;28;20465;-80
2023/02/05 01:13:37;;;;;;;7.13;5.60;;;13.50;41.50;;;;;;4989316;28;20529;-79
2023/02/05 01:16:05;;;;;;;7.70;5.70;;;13.40;40.90;;;;;;4986767;28;20547;-78
2023/02/05 01:18:34;;;;;;;6.70;5.37;;;13.20;41.80;;;;;;4989440;28;20461;-79
2023/02/05 01:21:02;;;;;;;8.77;5.67;;;13.30;42.00;;;;;;4988196;28;20481;-78
2023/02/05 01:23:29;;;;;;;6.50;5.30;;;13.30;41.90;;;;;;4991225;28;20457;-79
2023/02/05 01:25:58;;;;;;;5.30;4.80;;;13.10;41.60;;;;;;4988663;28;21020;-79
2023/02/05 01:28:26;;;;;;;5.10;4.60;;;13.00;41.80;;;;;;4991452;28;20449;-79
2023/02/05 01:30:54;;;;;;;6.27;5.10;;;13.10;42.60;;;;;;4989820;28;20484;-78
2023/02/05 01:33:22;;;;;;;9.30;5.80;;;13.30;42.20;;;;;;4988738;28;20485;-79
2023/02/05 01:35:50;;;;;;;5.47;4.70;;;13.30;42.10;;;;;;4990884;28;20477;-77
2023/02/05 01:38:19;;;;;;;5.93;5.30;;;13.40;42.10;;;;;;4989293;28;20464;-78
2023/02/05 01:40:47;;;;;;;6.77;5.13;;;13.40;41.60;;;;;;4990162;28;20468;-79
2023/02/05 01:43:17;;;;;;;6.37;4.90;;;13.40;41.90;;;;;;4990298;28;20453;-79
2023/02/05 01:45:50;;;;;;;6.83;5.10;;;13.50;42.10;;;;;;4986528;28;20452;-79
2023/02/05 01:48:20;;;;;;;7.10;5.00;;;13.50;42.10;;;;;;4989005;28;20507;-79
2023/02/05 01:50:50;;;;;;;4.80;4.30;;;13.60;42.00;;;;;;4995792;28;20497;-79
2023/02/05 01:53:19;;;;;;;7.57;5.10;;;13.50;41.40;;;;;;4994961;28;20440;-78
2023/02/05 01:55:50;;;;;;;5.53;4.93;;;13.40;41.80;;;;;;4995742;28;20477;-78
2023/02/05 01:58:19;;;;;;;5.60;5.07;;;13.40;42.10;;;;;;4998372;28;20441;-79
2023/02/05 02:00:47;;;;;;;7.57;5.30;;;13.50;42.30;;;;;;4996156;28;20556;-79
2023/02/05 02:03:15;;;;;;;7.60;4.93;;;13.50;42.10;;;;;;4988526;28;20484;-78
2023/02/05 02:05:43;;;;;;;6.50;4.97;;;13.50;42.10;;;;;;4991852;28;20452;-78
2023/02/05 02:08:11;;;;;;;5.20;4.70;;;13.50;42.20;;;;;;4995470;28;20520;-78
2023/02/05 02:10:40;;;;;;;9.43;4.93;;;13.50;42.00;;;;;;4995426;28;20579;-79
2023/02/05 02:13:08;;;;;;;8.40;5.73;;;13.50;42.30;;;;;;4990879;28;20469;-79
2023/02/05 02:15:37;;;;;;;5.90;4.80;;;13.60;42.40;;;;;;4998879;28;20473;-78
2023/02/05 02:20:48;;;;;;;5.53;4.67;;;13.60;42.30;;;;;;4986553;28;20480;-79
2023/02/05 02:23:21;;;;;;;6.07;5.17;;;13.60;42.40;;;;;;4993543;28;20468;-78
2023/02/05 02:25:59;;;;;;;5.30;4.80;;;13.50;43.10;;;;;;4990304;28;20480;-78
2023/02/05 02:28:29;;;;;;;6.80;4.97;;;13.60;42.40;;;;;;4991956;28;20449;-79
2023/02/05 02:31:00;;;;;;;6.50;4.77;;;13.60;42.60;;;;;;4993359;28;20473;-79
2023/02/05 02:33:31;;;;;;;7.37;5.20;;;13.60;42.60;;;;;;4993319;28;20468;-79
2023/02/05 02:36:01;;;;;;;7.67;5.20;;;13.60;42.40;;;;;;4990338;28;20474;-79
2023/02/05 02:38:31;;;;;;;5.10;4.60;;;13.60;42.30;;;;;;4991685;28;20459;-78
2023/02/05 02:41:01;;;;;;;6.20;4.60;;;13.60;42.40;;;;;;4991470;28;20477;-78
2023/02/05 02:43:32;;;;;;;6.00;5.00;;;13.60;42.40;;;;;;4990046;28;20460;-78
2023/02/05 02:46:01;;;;;;;6.10;5.03;;;13.50;42.40;;;;;;4989616;28;20934;-78
2023/02/05 02:48:29;;;;;;;5.67;5.10;;;13.50;42.20;;;;;;4987442;28;20464;-79
2023/02/05 02:50:56;;;;;;;6.07;5.40;;;13.40;42.60;;;;;;4991838;28;20493;-79
2023/02/05 02:53:26;;;;;;;5.67;4.77;;;13.40;42.50;;;;;;4993919;28;20465;-79
2023/02/05 02:55:55;;;;;;;6.80;5.30;;;13.40;42.60;;;;;;4988527;28;20482;-78
2023/02/05 02:58:26;;;;;;;12.80;6.20;;;13.30;42.20;;;;;;4991064;28;20465;-78
2023/02/05 03:00:55;;;;;;;5.50;5.00;;;13.30;41.90;;;;;;4989326;28;20476;-79
2023/02/05 03:03:24;;;;;;;5.50;5.00;;;13.30;42.70;;;;;;4998027;28;20454;-77
2023/02/05 03:05:52;;;;;;;6.77;5.50;;;13.40;42.60;;;;;;4994022;28;20454;-77
2023/02/05 03:08:22;;;;;;;5.90;5.30;;;13.30;42.50;;;;;;4992830;28;20467;-77
2023/02/05 03:10:53;;;;;;;9.60;5.50;;;13.30;42.80;;;;;;4988947;28;20864;-78
2023/02/05 03:13:20;;;;;;;5.57;5.07;;;13.40;42.60;;;;;;4989606;28;20565;-79
2023/02/05 03:15:48;;;;;;;6.93;5.27;;;13.30;42.60;;;;;;4993041;28;20477;-78
2023/02/05 03:18:17;;;;;;;8.07;5.23;;;13.40;42.60;;;;;;4988932;28;20448;-78
2023/02/05 03:20:47;;;;;;;5.50;5.00;;;13.20;41.80;;;;;;4991733;28;20500;-79
2023/02/05 03:23:15;;;;;;;6.60;5.33;;;13.30;42.90;;;;;;4992102;28;20453;-78
2023/02/05 03:25:43;;;;;;;5.10;4.60;;;13.30;42.40;;;;;;4987087;28;20481;-79
2023/02/05 03:28:10;;;;;;;6.00;5.33;;;13.30;42.90;;;;;;4992989;28;20449;-78
2023/02/05 03:30:42;;;;;;;6.27;5.50;;;13.30;42.00;;;;;;4991726;28;20453;-78
2023/02/05 03:33:19;;;;;;;7.10;5.23;;;13.20;42.80;;;;;;4990855;28;20461;-78
2023/02/05 03:35:49;;;;;;;8.93;5.80;;;13.20;42.80;;;;;;4991499;28;20491;-79
2023/02/05 03:38:26;;;;;;;7.37;5.53;;;13.30;42.90;;;;;;4986433;28;20465;-79
2023/02/05 03:40:55;;;;;;;7.40;5.47;;;13.30;42.90;;;;;;4990825;28;20476;-80
2023/02/05 03:43:31;;;;;;;6.07;5.47;;;13.20;42.50;;;;;;4992362;28;20453;-78
2023/02/05 03:46:01;;;;;;;6.97;5.10;;;13.20;42.90;;;;;;4992946;28;20457;-78
2023/02/05 03:48:37;;;;;;;6.63;5.93;;;13.30;42.90;;;;;;4991423;28;20458;-78
2023/02/05 03:51:12;;;;;;;6.40;4.90;;;13.20;42.50;;;;;;4991646;28;20498;-78
2023/02/05 03:53:43;;;;;;;5.87;4.90;;;13.20;42.90;;;;;;4992284;28;20452;-78
2023/02/05 03:56:13;;;;;;;5.83;5.23;;;13.10;43.10;;;;;;4991342;28;20483;-77
2023/02/05 03:58:41;;;;;;;5.87;5.33;;;13.20;43.30;;;;;;4992351;28;20460;-78
2023/02/05 04:01:10;;;;;;;7.73;5.77;;;13.20;42.90;;;;;;4984253;28;20488;-79
2023/02/05 04:03:39;;;;;;;5.37;4.87;;;13.10;43.10;;;;;;4993362;28;20525;-80
2023/02/05 04:06:07;;;;;;;6.07;5.47;;;13.20;43.00;;;;;;4989190;28;20449;-78
2023/02/05 04:08:35;;;;;;;7.80;5.37;;;13.20;43.30;;;;;;4997898;28;20445;-79
2023/02/05 04:11:03;;;;;;;5.60;5.07;;;13.20;42.60;;;;;;4988126;28;20477;-79
2023/02/05 04:13:31;;;;;;;6.60;5.10;;;13.10;43.50;;;;;;4994030;28;20457;-79
2023/02/05 04:15:59;;;;;;;5.93;5.27;;;13.20;42.80;;;;;;4990963;28;20474;-78
2023/02/05 04:18:27;;;;;;;6.07;5.50;;;13.10;43.50;;;;;;4986057;28;20449;-78
2023/02/05 04:20:57;;;;;;;5.93;5.33;;;13.10;43.40;;;;;;4989951;28;20469;-78
2023/02/05 04:23:25;;;;;;;20.37;13.13;;;13.10;43.50;;;;;;4991339;28;20458;-78
2023/02/05 04:25:53;;;;;;;32.57;18.00;;;13.20;43.70;;;;;;4987368;28;20473;-78
2023/02/05 04:28:22;;;;;;;30.00;17.70;;;13.10;43.80;;;;;;4990958;28;20454;-78
2023/02/05 04:30:50;;;;;;;26.73;16.23;;;13.20;43.90;;;;;;4992080;28;20481;-78
2023/02/05 04:33:17;;;;;;;26.97;16.13;;;13.10;44.30;;;;;;4990583;28;20510;-79
2023/02/05 04:35:45;;;;;;;22.13;13.23;;;13.20;44.20;;;;;;4988626;28;20473;-78
2023/02/05 04:38:15;;;;;;;20.10;12.80;;;13.10;43.80;;;;;;4989940;28;20461;-79
2023/02/05 04:40:42;;;;;;;19.07;12.40;;;13.20;44.70;;;;;;4991284;28;20488;-78
2023/02/05 04:43:10;;;;;;;17.20;11.30;;;13.30;44.60;;;;;;4987696;28;20457;-78
2023/02/05 04:45:39;;;;;;;15.13;10.00;;;13.30;44.50;;;;;;4989724;28;20460;-79
2023/02/05 04:48:08;;;;;;;11.83;9.10;;;13.30;44.70;;;;;;4989953;28;20453;-79
2023/02/05 04:50:37;;;;;;;11.47;8.50;;;13.20;44.40;;;;;;4988683;28;20475;-78
2023/02/05 04:53:05;;;;;;;11.53;8.53;;;13.10;44.00;;;;;;4990521;28;20454;-78
2023/02/05 04:55:34;;;;;;;10.53;8.17;;;13.00;45.00;;;;;;4987720;28;20453;-77
2023/02/05 04:58:03;;;;;;;12.03;8.40;;;13.00;45.70;;;;;;4984026;28;20452;-77
2023/02/05 05:00:31;;;;;;;12.83;6.37;;;12.90;45.70;;;;;;4985905;28;20456;-78
2023/02/05 05:02:59;;;;;;;7.90;7.10;;;13.00;45.90;;;;;;4991648;28;20460;-77
2023/02/05 05:05:27;;;;;;;9.03;6.30;;;13.00;45.80;;;;;;4986846;28;20484;-77
2023/02/05 05:07:54;;;;;;;8.67;6.47;;;13.00;46.00;;;;;;4989595;28;20440;-77
2023/02/05 05:10:22;;;;;;;8.93;6.67;;;13.00;46.00;;;;;;4990039;28;20455;-76
2023/02/05 05:12:52;;;;;;;6.93;6.20;;;13.00;46.00;;;;;;4984346;28;20461;-77
2023/02/05 05:15:20;;;;;;;7.53;6.37;;;13.00;45.70;;;;;;4980588;28;20451;-77
2023/02/05 05:17:48;;;;;;;7.87;5.90;;;13.10;45.80;;;;;;4990694;28;20477;-78
2023/02/05 05:20:16;;;;;;;6.60;5.93;;;13.00;45.40;;;;;;4989088;28;20461;-76
2023/02/05 05:22:44;;;;;;;6.40;5.70;;;12.90;45.50;;;;;;4994033;28;20479;-78
2023/02/05 05:25:12;;;;;;;7.50;5.80;;;12.90;46.60;;;;;;4991235;28;20452;-78
2023/02/05 05:27:39;;;;;;;6.13;5.53;;;12.90;46.40;;;;;;4994826;28;20480;-78
2023/02/05 05:30:10;;;;;;;8.73;6.13;;;12.90;46.60;;;;;;4992435;28;20473;-78
2023/02/05 05:32:38;;;;;;;6.90;6.10;;;12.90;46.10;;;;;;4992394;28;20484;-78
2023/02/05 05:35:06;;;;;;;6.33;5.73;;;12.70;47.00;;;;;;4995828;28;20453;-78
2023/02/05 05:37:34;;;;;;;6.73;5.67;;;12.90;47.10;;;;;;4994351;28;20478;-78
2023/02/05 05:45:48;;;;;;;6.80;5.90;;;13.00;46.90;;;;;;4924799;29;20455;-78
2023/02/05 05:48:16;;;;;;;6.17;5.33;;;13.00;47.10;;;;;;4966032;28;20543;-78
2023/02/05 05:50:45;;;;;;;7.50;6.10;;;12.90;47.10;;;;;;4993932;28;20467;-78
2023/02/05 05:53:13;;;;;;;7.20;6.07;;;12.90;47.10;;;;;;4989795;28;20449;-78
2023/02/05 05:55:42;;;;;;;8.33;5.93;;;12.90;46.50;;;;;;4993855;28;20476;-78
2023/02/05 05:58:09;;;;;;;8.30;5.80;;;12.80;46.90;;;;;;4994912;28;20488;-78
2023/02/05 06:00:37;;;;;;;6.23;5.63;;;12.80;47.90;;;;;;4992998;28;20466;-79
2023/02/05 06:03:07;;;;;;;6.60;5.80;;;12.80;47.60;;;;;;4994381;28;20452;-78
2023/02/05 06:05:35;;;;;;;6.50;5.97;;;12.80;47.20;;;;;;4987500;28;20464;-78
2023/02/05 06:08:03;;;;;;;7.77;6.07;;;12.70;47.80;;;;;;4992984;28;20457;-77
2023/02/05 06:10:32;;;;;;;7.50;6.27;;;12.80;47.70;;;;;;4992574;28;20449;-77
2023/02/05 06:13:00;;;;;;;6.90;6.20;;;12.80;47.40;;;;;;4989887;28;20444;-78
2023/02/05 06:15:27;;;;;;;6.83;6.00;;;12.90;47.80;;;;;;4994441;28;20459;-78
2023/02/05 06:17:55;;;;;;;9.80;6.70;;;12.90;47.60;;;;;;4994599;28;20477;-78
2023/02/05 06:20:27;;;;;;;8.17;6.77;;;12.90;47.60;;;;;;4993243;28;20457;-78
2023/02/05 06:22:54;;;;;;;8.10;6.83;;;12.90;47.40;;;;;;4993817;28;20456;-78
2023/02/05 06:25:23;;;;;;;8.67;7.00;;;12.90;47.00;;;;;;4993553;28;20456;-78
2023/02/05 06:27:51;;;;;;;12.27;6.80;;;12.80;47.60;;;;;;4993609;28;20468;-78
2023/02/05 06:30:19;;;;;;;8.40;6.70;;;12.70;48.20;;;;;;4993792;28;20457;-77
2023/02/05 06:32:47;;;;;;;7.50;6.67;;;12.80;48.20;;;;;;4992870;28;20483;-78
2023/02/05 06:35:15;;;;;;;10.70;7.40;;;12.80;47.90;;;;;;4993670;28;20460;-77
2023/02/05 06:37:44;;;;;;;8.13;6.57;;;12.70;47.10;;;;;;4991398;28;20473;-78
2023/02/05 06:40:16;;;;;;;9.17;6.93;;;12.60;47.70;;;;;;5000262;28;20451;-78
2023/02/05 06:42:45;;;;;;;7.70;6.70;;;12.50;48.70;;;;;;4992588;28;20553;-76
2023/02/05 06:45:12;;;;;;;8.87;7.00;;;12.60;48.90;;;;;;4994407;28;20472;-77
2023/02/05 06:47:40;;;;;;;7.47;6.77;;;12.60;48.60;;;;;;4992171;28;20454;-77
2023/02/05 06:50:09;;;;;;;9.60;7.27;;;12.50;48.70;;;;;;4993633;28;20461;-78
2023/02/05 06:52:37;;;;;;;7.60;6.57;;;12.60;48.80;;;;;;4991637;28;20870;-78
2023/02/05 06:55:07;;;;;;;7.87;7.07;;;12.60;48.80;;;;;;4993761;28;20460;-78
2023/02/05 06:57:34;;;;;;;7.83;7.03;;;12.60;48.40;;;;;;4990245;28;20481;-78
2023/02/05 07:00:04;;;;;;;8.53;7.30;;;12.70;48.90;;;;;;4994130;28;20471;-77
2023/02/05 07:02:31;;;;;;;7.57;6.57;;;12.80;49.20;;;;;;4988128;28;20474;-77
2023/02/05 07:04:59;;;;;;;8.97;6.83;;;12.80;48.70;;;;;;4993141;28;20481;-78
2023/02/05 07:07:27;;;;;;;9.60;7.27;;;12.80;48.50;;;;;;4990893;28;20473;-78
2023/02/05 07:09:55;;;;;;;8.30;6.87;;;12.80;48.10;;;;;;4994109;28;20468;-77
2023/02/05 07:12:25;;;;;;;9.03;7.30;;;12.70;48.20;;;;;;4993429;28;20483;-78
2023/02/05 07:14:53;;;;;;;9.07;6.70;;;12.70;48.90;;;;;;4994454;28;20458;-78
2023/02/05 07:17:21;;;;;;;8.80;7.10;;;12.80;48.80;;;;;;4992054;28;20578;-78
2023/02/05 07:19:49;;;;;;;10.00;7.77;;;12.80;48.70;;;;;;4994537;28;20461;-79
2023/02/05 07:22:17;;;;;;;8.10;7.00;;;12.60;48.10;;;;;;4994222;28;20477;-79
2023/02/05 07:24:45;;;;;;;9.23;7.43;;;12.50;48.70;;;;;;4993955;28;20453;-78
2023/02/05 07:27:12;;;;;;;8.70;7.33;;;12.50;49.10;;;;;;4994733;28;20473;-79
2023/02/05 07:29:42;;;;;;;9.77;7.70;;;12.60;48.80;;;;;;4993329;28;20479;-79
2023/02/05 07:32:10;;;;;;;9.57;7.27;;;12.70;49.10;;;;;;4993959;28;20473;-79
2023/02/05 07:34:38;;;;;;;15.10;8.00;;;12.70;48.80;;;;;;4992396;28;20459;-78
2023/02/05 07:37:06;;;;;;;9.23;7.23;;;12.70;48.70;;;;;;4994435;28;20461;-80
2023/02/05 07:39:34;;;;;;;10.47;7.63;;;12.60;49.00;;;;;;4993060;28;20461;-78
2023/02/05 07:42:02;;;;;;;13.83;7.50;;;12.60;49.00;;;;;;4992624;28;20469;-79
2023/02/05 07:44:30;;;;;;;9.00;7.80;;;12.50;49.20;;;;;;4990114;28;20858;-79
2023/02/05 07:46:59;;;;;;;10.97;8.07;;;12.60;49.10;;;;;;4990879;28;20460;-79
2023/02/05 07:49:27;;;;;;;9.93;7.20;;;12.50;48.90;;;;;;4993795;28;20454;-78
2023/02/05 07:51:55;;;;;;;8.47;7.50;;;12.50;49.40;;;;;;4989812;28;20473;-80
2023/02/05 07:54:23;;;;;;;9.97;7.60;;;12.70;49.30;;;;;;4991922;28;20453;-78
2023/02/05 07:56:51;;;;;;;9.60;7.20;;;12.70;49.10;;;;;;4993013;28;20476;-79
2023/02/05 07:59:18;;;;;;;9.87;8.00;;;12.80;49.20;;;;;;4995346;28;20481;-79
2023/02/05 08:01:46;;;;;;;9.07;7.53;;;12.80;49.10;;;;;;4994759;28;20476;-79
2023/02/05 08:04:15;;;;;;;10.13;8.00;;;12.90;49.00;;;;;;4989439;28;20836;-80
2023/02/05 08:06:43;;;;;;;12.60;8.00;;;12.80;49.20;;;;;;4993652;28;20516;-79
2023/02/05 08:09:13;;;;;;;10.87;7.67;;;12.90;49.30;;;;;;4995530;28;20445;-79
2023/02/05 08:11:40;;;;;;;12.33;8.23;;;12.80;49.30;;;;;;4989713;28;20478;-78
2023/02/05 08:14:08;;;;;;;12.60;8.60;;;12.80;49.50;;;;;;4982709;28;20473;-79
2023/02/05 08:16:36;;;;;;;11.20;8.10;;;12.80;49.60;;;;;;4993437;28;20457;-79
2023/02/05 08:19:04;;;;;;;11.47;8.63;;;12.90;49.50;;;;;;4987610;28;21037;-80
2023/02/05 08:21:34;;;;;;;10.63;8.00;;;13.00;49.50;;;;;;4986766;28;20484;-79
2023/02/05 08:24:02;;;;;;;9.70;8.20;;;13.10;49.30;;;;;;4991951;28;20457;-78
2023/02/05 08:26:30;;;;;;;9.93;7.53;;;13.10;49.40;;;;;;4992722;28;20476;-79
2023/02/05 08:28:58;;;;;;;13.40;8.63;;;13.10;49.30;;;;;;4994102;28;20452;-79
2023/02/05 08:31:26;;;;;;;10.17;7.80;;;13.10;49.20;;;;;;4991145;28;20473;-79
2023/02/05 08:33:55;;;;;;;10.00;8.33;;;13.20;49.20;;;;;;4993626;28;20468;-79
2023/02/05 08:36:23;;;;;;;10.40;7.77;;;13.10;49.20;;;;;;4992090;28;20457;-80
2023/02/05 08:38:52;;;;;;;12.03;8.57;;;13.20;49.40;;;;;;4995041;28;20469;-79
2023/02/05 08:41:21;;;;;;;10.10;8.77;;;13.30;49.40;;;;;;4983323;28;20474;-79
2023/02/05 08:43:50;;;;;;;10.83;8.43;;;13.30;49.60;;;;;;4994889;28;21202;-77
2023/02/05 08:46:19;;;;;;;13.53;8.73;;;13.30;49.50;;;;;;4988946;28;20453;-77
2023/02/05 08:48:47;;;;;;;12.20;7.90;;;13.40;49.40;;;;;;4989578;28;20458;-77
2023/02/05 08:51:15;;;;;;;11.40;8.53;;;13.40;49.40;;;;;;4988634;28;20465;-78
2023/02/05 08:53:43;;;;;;;12.87;8.53;;;13.50;49.50;;;;;;5000307;28;20465;-78
2023/02/05 08:56:12;;;;;;;10.83;8.30;;;13.60;49.50;;;;;;4993396;28;20457;-78
2023/02/05 08:58:40;;;;;;;11.50;8.37;;;13.70;49.40;;;;;;4993348;28;20477;-78
2023/02/05 09:01:09;;;;;;;12.00;9.30;;;13.80;49.30;;;;;;4995965;28;20473;-78
2023/02/05 09:03:37;;;;;;;15.13;8.87;;;13.80;49.20;;;;;;4995277;28;20445;-80
2023/02/05 09:06:05;;;;;;;12.37;9.37;;;13.90;49.50;;;;;;4996488;28;20441;-79
2023/02/05 09:08:33;;;;;;;14.07;9.70;;;14.00;49.50;;;;;;4988516;28;20441;-79
2023/02/05 09:11:01;;;;;;;13.20;8.87;;;14.10;49.40;;;;;;4995847;28;20465;-79
2023/02/05 09:13:30;;;;;;;10.27;8.73;;;14.20;49.40;;;;;;4994541;28;20445;-80
2023/02/05 09:15:58;;;;;;;14.20;9.93;;;14.20;49.40;;;;;;4999159;28;20441;-78
2023/02/05 09:18:26;;;;;;;12.93;9.30;;;14.20;49.40;;;;;;4995490;28;20545;-79
2023/02/05 09:20:54;;;;;;;14.50;8.93;;;14.30;49.20;;;;;;4993737;28;20481;-79
2023/02/05 09:23:21;;;;;;;13.60;9.37;;;14.30;49.20;;;;;;4992073;28;20466;-79
2023/02/05 09:25:49;;;;;;;12.50;10.07;;;14.30;49.20;;;;;;4992658;28;20481;-80
2023/02/05 09:28:17;;;;;;;12.40;9.13;;;14.30;49.20;;;;;;4994002;28;20452;-79
2023/02/05 09:30:46;;;;;;;10.80;9.60;;;14.30;49.20;;;;;;4990893;28;20449;-79
2023/02/05 09:33:14;;;;;;;13.43;9.33;;;14.40;49.40;;;;;;4993469;28;20455;-80
2023/02/05 09:35:42;;;;;;;12.57;9.63;;;14.50;49.60;;;;;;4993061;28;20461;-80
2023/02/05 09:38:11;;;;;;;16.00;10.87;;;14.50;49.40;;;;;;4988007;28;20453;-80
2023/02/05 09:40:42;;;;;;;13.93;10.57;;;14.60;49.60;;;;;;4985862;28;20458;-80
2023/02/05 09:43:21;;;;;;;12.43;9.97;;;14.60;49.50;;;;;;4989175;28;20445;-79
2023/02/05 09:45:55;;;;;;;12.90;10.60;;;14.60;49.50;;;;;;4989167;28;20458;-81
2023/02/05 09:48:48;;;;;;;14.97;10.33;;;14.50;49.60;;;;;;4994148;28;20448;-80
2023/02/05 09:51:17;;;;;;;13.17;10.43;;;14.50;49.50;;;;;;4983537;28;20485;-78
2023/02/05 09:53:47;;;;;;;14.70;10.50;;;14.40;49.90;;;;;;4991149;28;20466;-80
2023/02/05 09:56:15;;;;;;;16.40;10.57;;;14.40;49.90;;;;;;4992460;28;20473;-78
2023/02/05 09:58:44;;;;;;;13.10;10.07;;;14.40;50.00;;;;;;4993053;28;20480;-79
2023/02/05 10:01:18;;;;;;;13.67;10.53;;;14.40;50.00;;;;;;4990553;28;20531;-78
2023/02/05 10:03:48;;;;;;;14.30;11.00;;;14.40;50.00;;;;;;4991327;28;20540;-80
2023/02/05 10:06:27;;;;;;;15.30;10.80;;;14.40;50.30;;;;;;4989527;28;20456;-79
2023/02/05 10:08:57;;;;;;;16.83;11.33;;;14.50;50.40;;;;;;4990120;28;20449;-79
2023/02/05 10:11:27;;;;;;;16.40;10.73;;;14.50;50.40;;;;;;4995856;28;20488;-79
2023/02/05 10:14:00;;;;;;;17.70;10.83;;;14.50;50.40;;;;;;4994069;28;20457;-78
2023/02/05 10:16:49;;;;;;;14.90;10.20;;;14.60;50.60;;;;;;4991103;28;20460;-79
2023/02/05 10:19:42;;;;;;;17.90;11.00;;;14.70;50.40;;;;;;4992462;28;20480;-81
2023/02/05 10:22:14;;;;;;;20.10;11.57;;;14.70;50.50;;;;;;4994642;28;20484;-79
2023/02/05 10:25:07;;;;;;;16.30;10.90;;;14.80;50.50;;;;;;4994047;28;20463;-78
2023/02/05 10:27:39;;;;;;;17.40;11.73;;;14.70;50.50;;;;;;4990470;28;20476;-79
2023/02/05 10:30:10;;;;;;;16.03;11.47;;;14.80;50.60;;;;;;4988507;28;20446;-79
2023/02/05 10:32:45;;;;;;;19.40;12.23;;;14.80;50.70;;;;;;4995191;28;20835;-77
2023/02/05 10:35:21;;;;;;;21.33;12.77;;;14.80;50.70;;;;;;4997223;28;20428;-78
2023/02/05 10:37:51;;;;;;;16.80;11.70;;;14.70;50.70;;;;;;4991067;28;20448;-80
2023/02/05 10:40:21;;;;;;;20.27;12.83;;;14.70;50.70;;;;;;4997150;28;20467;-79
2023/02/05 10:42:52;;;;;;;17.77;12.47;;;14.70;50.80;;;;;;4989911;28;20474;-80
2023/02/05 10:45:21;;;;;;;16.93;11.50;;;14.80;51.00;;;;;;4986201;28;20454;-79
2023/02/05 10:47:56;;;;;;;23.33;11.57;;;14.70;50.90;;;;;;4990290;28;20468;-79
2023/02/05 10:50:26;;;;;;;15.77;11.90;;;14.70;51.10;;;;;;4983246;28;20452;-80
2023/02/05 10:52:55;;;;;;;15.40;10.97;;;14.70;51.10;;;;;;4987811;28;20487;-77
2023/02/05 10:55:23;;;;;;;14.50;11.50;;;14.70;51.20;;;;;;4989860;28;20452;-80
2023/02/05 10:57:51;;;;;;;12.40;10.30;;;14.70;51.20;;;;;;4994075;28;20449;-79
2023/02/05 11:00:20;;;;;;;15.37;11.10;;;14.70;51.30;;;;;;4991626;28;20481;-79
2023/02/05 11:02:50;;;;;;;16.40;11.77;;;14.70;51.20;;;;;;4992155;28;20473;-80
2023/02/05 11:05:22;;;;;;;15.87;11.57;;;14.80;51.60;;;;;;4991941;28;20445;-78
2023/02/05 11:07:51;;;;;;;20.07;12.80;;;14.80;51.40;;;;;;4990581;28;20442;-80
2023/02/05 11:10:20;;;;;;;18.33;12.87;;;14.80;51.60;;;;;;4989109;28;20429;-79
2023/02/05 11:12:49;;;;;;;19.37;12.50;;;14.80;51.50;;;;;;4991656;28;20460;-79
2023/02/05 11:15:23;;;;;;;19.07;12.20;;;14.80;51.60;;;;;;4990892;28;20457;-79
2023/02/05 11:17:53;;;;;;;16.70;11.37;;;14.80;51.60;;;;;;4990825;28;20476;-79
2023/02/05 11:20:28;;;;;;;12.40;10.10;;;14.90;51.70;;;;;;4992074;28;20508;-79
2023/02/05 11:23:06;;;;;;;12.37;10.13;;;14.90;51.70;;;;;;4993696;28;20461;-79
2023/02/05 11:25:34;;;;;;;12.07;9.93;;;14.90;51.50;;;;;;4988890;28;20453;-79
2023/02/05 11:28:04;;;;;;;13.00;10.80;;;14.90;51.70;;;;;;4993001;28;20469;-79
2023/02/05 11:30:34;;;;;;;13.80;10.03;;;14.90;51.60;;;;;;4994435;28;20449;-79
2023/02/05 11:33:31;;;;;;;12.07;9.53;;;15.00;51.80;;;;;;4994382;28;20501;-79
2023/02/05 11:36:00;;;;;;;12.50;10.10;;;15.00;51.80;;;;;;4995163;28;20453;-79
2023/02/05 11:38:34;;;;;;;13.20;9.13;;;15.00;51.70;;;;;;4994020;28;20461;-79
2023/02/05 11:41:06;;;;;;;13.17;10.67;;;15.10;51.90;;;;;;4991860;28;20485;-80
2023/02/05 11:43:34;;;;;;;12.80;9.67;;;15.10;51.80;;;;;;4989476;28;20469;-79
2023/02/05 11:46:06;;;;;;;14.40;10.47;;;15.20;51.90;;;;;;4993772;28;20474;-79
2023/02/05 11:48:39;;;;;;;15.87;10.57;;;15.20;51.90;;;;;;4993845;28;20456;-79
2023/02/05 11:51:09;;;;;;;13.53;11.13;;;15.30;51.70;;;;;;4991636;28;20480;-78
2023/02/05 11:53:37;;;;;;;14.70;9.50;;;15.40;51.80;;;;;;4991703;28;20453;-78
2023/02/05 11:56:08;;;;;;;13.33;9.23;;;15.40;51.90;;;;;;4990532;28;20477;-79
2023/02/05 11:58:35;;;;;;;10.60;9.00;;;15.60;52.00;;;;;;4992747;28;20937;-79
2023/02/05 12:01:06;;;;;;;11.23;9.10;;;15.70;51.80;;;;;;4989144;28;20481;-78
2023/02/05 12:03:36;;;;;;;9.83;4.10;;;15.60;51.80;;;;;;4991884;28;20488;-80
2023/02/05 12:06:11;;;;;;;9.00;5.60;;;15.70;56.30;;;;;;4992481;28;20461;-79
2023/02/05 12:08:45;;;;;;;11.93;5.77;;;15.50;54.30;;;;;;4992729;28;20476;-80
2023/02/05 12:11:22;;;;;;;11.33;6.50;;;14.80;55.00;;;;;;4990643;28;20477;-78
2023/02/05 12:13:56;;;;;;;9.90;4.80;;;14.50;55.50;;;;;;4991006;28;20981;-77
2023/02/05 12:16:34;;;;;;;6.97;3.57;;;15.40;57.40;;;;;;4992111;28;20461;-78
2023/02/05 12:19:10;;;;;;;10.10;3.87;;;16.40;57.00;;;;;;4991175;28;20496;-78
2023/02/05 12:21:42;;;;;;;10.83;4.00;;;17.10;56.00;;;;;;4990824;28;20563;-79
2023/02/05 12:24:47;;;;;;;6.20;3.50;;;17.80;55.60;;;;;;4993055;28;20445;-77
2023/02/05 12:27:23;;;;;;;7.37;3.30;;;18.40;54.50;;;;;;4990348;28;20480;-76
2023/02/05 12:30:01;;;;;;;5.23;3.13;;;18.80;54.40;;;;;;4990040;28;20460;-76
2023/02/05 12:32:33;;;;;;;6.80;2.70;;;19.20;54.10;;;;;;4984017;28;20473;-75
2023/02/05 12:35:13;;;;;;;6.40;2.30;;;19.50;53.80;;;;;;4989760;28;20456;-77
2023/02/05 12:37:43;;;;;;;4.80;2.30;;;19.70;53.00;;;;;;4987997;28;20457;-75
2023/02/05 12:40:28;;;;;;;7.20;2.37;;;19.90;52.60;;;;;;4991194;28;20478;-76
2023/02/05 12:42:59;;;;;;;7.10;2.63;;;20.10;52.30;;;;;;4994953;28;20445;-78
2023/02/05 12:45:35;;;;;;;4.90;2.70;;;20.20;52.20;;;;;;4988390;28;20739;-78
2023/02/05 12:48:39;;;;;;;3.10;2.40;;;20.30;51.90;;;;;;4990777;28;20457;-78
2023/02/05 12:51:18;;;;;;;7.70;2.03;;;20.40;51.80;;;;;;4964098;28;20476;-77
2023/02/05 12:54:09;;;;;;;9.20;2.80;;;20.60;51.50;;;;;;4991821;28;20457;-77
2023/02/05 12:56:49;;;;;;;6.80;2.93;;;20.60;51.10;;;;;;4976492;28;20559;-78
2023/02/05 12:59:19;;;;;;;5.93;2.30;;;20.70;51.20;;;;;;4992583;28;20460;-76
2023/02/05 13:01:48;;;;;;;9.90;2.80;;;20.80;51.10;;;;;;4992135;28;20493;-76
2023/02/05 13:04:21;;;;;;;3.27;2.20;;;20.80;51.20;;;;;;4989275;28;20464;-77